sensor_id;sensor_type;location;lat;lon;timestamp;pressure;altitude;pressure_sealevel;temperature;humidity
3254;BME280;1639;42.804;23.342;2022-12-16T00:02:25;74076.84;;;-148.52;100.00
3254;BME280;1639;42.804;23.342;2022-12-16T00:04:50;74064.44;;;-148.52;100.00
3254;BME280;1639;42.804;23.342;2022-12-16T00:07:16;74062.38;;;-148.52;100.00
3254;BME280;1639;42.804;23.342;2022-12-16T00:09:41;74068.59;;;-148.52;100.00
3254;BME280;1639;42.804;23.342;2022-12-16T00:12:06;74064.44;;;-148.52;100.00
3254;BME280;1639;42.804;23.342;2022-12-16T00:14:32;74072.72;;;-148.52;100.00
3254;BME280;1639;42.804;23.342;2022-12-16T00:16:57;74064.44;;;-148.52;100.00
3254;BME280;1639;42.804;23.342;2022-12-16T00:19:22;74074.78;;;-148.52;100.00
3254;BME280;1639;42.804;23.342;2022-12-16T00:21:48;74105.81;;;-148.52;100.00
3254;BME280;1639;42.804;23.342;2022-12-16T00:24:14;74105.81;;;-148.52;100.00
3254;BME280;1639;42.804;23.342;2022-12-16T00:26:39;74072.72;;;-148.52;100.00
3254;BME280;1639;42.804;23.342;2022-12-16T00:29:05;74068.59;;;-148.52;100.00
3254;BME280;1639;42.804;23.342;2022-12-16T00:31:30;74072.72;;;-148.52;100.00
3254;BME280;1639;42.804;23.342;2022-12-16T00:33:56;74054.09;;;-148.52;100.00
3254;BME280;1639;42.804;23.342;2022-12-16T00:36:22;74052.03;;;-148.52;100.00
3254;BME280;1639;42.804;23.342;2022-12-16T00:38:47;74047.88;;;-148.52;100.00
3254;BME280;1639;42.804;23.342;2022-12-16T00:41:13;74039.63;;;-148.52;100.00
3254;BME280;1639;42.804;23.342;2022-12-16T00:43:38;74035.47;;;-148.52;100.00
3254;BME280;1639;42.804;23.342;2022-12-16T00:46:04;74021.00;;;-148.52;100.00
3254;BME280;1639;42.804;23.342;2022-12-16T00:48:29;74012.72;;;-148.52;100.00
3254;BME280;1639;42.804;23.342;2022-12-16T00:50:55;74016.88;;;-148.52;100.00
3254;BME280;1639;42.804;23.342;2022-12-16T00:53:21;74012.72;;;-148.52;100.00
3254;BME280;1639;42.804;23.342;2022-12-16T00:55:47;74010.66;;;-148.52;100.00
3254;BME280;1639;42.804;23.342;2022-12-16T00:58:13;74014.78;;;-148.52;100.00
3254;BME280;1639;42.804;23.342;2022-12-16T01:00:39;74060.31;;;-148.52;100.00
3254;BME280;1639;42.804;23.342;2022-12-16T01:03:05;74043.75;;;-148.52;100.00
3254;BME280;1639;42.804;23.342;2022-12-16T01:05:30;74037.53;;;-148.52;100.00
3254;BME280;1639;42.804;23.342;2022-12-16T01:07:56;74027.22;;;-148.52;100.00
3254;BME280;1639;42.804;23.342;2022-12-16T01:10:23;74023.06;;;-148.52;100.00
3254;BME280;1639;42.804;23.342;2022-12-16T01:12:49;74016.88;;;-148.52;100.00
3254;BME280;1639;42.804;23.342;2022-12-16T01:15:15;74031.34;;;-148.52;100.00
3254;BME280;1639;42.804;23.342;2022-12-16T01:17:40;74039.63;;;-148.52;100.00
3254;BME280;1639;42.804;23.342;2022-12-16T01:20:07;74037.53;;;-148.52;100.00
3254;BME280;1639;42.804;23.342;2022-12-16T01:22:33;74041.69;;;-148.52;100.00
3254;BME280;1639;42.804;23.342;2022-12-16T01:24:59;74039.63;;;-148.52;100.00
3254;BME280;1639;42.804;23.342;2022-12-16T01:27:26;74037.53;;;-148.52;100.00
3254;BME280;1639;42.804;23.342;2022-12-16T01:29:51;74039.63;;;-148.52;100.00
3254;BME280;1639;42.804;23.342;2022-12-16T01:32:17;74045.81;;;-148.52;100.00
3254;BME280;1639;42.804;23.342;2022-12-16T01:34:42;74056.16;;;-148.52;100.00
3254;BME280;1639;42.804;23.342;2022-12-16T01:37:12;74066.50;;;-148.52;100.00
3254;BME280;1639;42.804;23.342;2022-12-16T01:39:37;74064.44;;;-148.52;100.00
3254;BME280;1639;42.804;23.342;2022-12-16T01:42:03;74066.50;;;-148.52;100.00
3254;BME280;1639;42.804;23.342;2022-12-16T01:44:29;74078.94;;;-148.52;100.00
3254;BME280;1639;42.804;23.342;2022-12-16T01:46:57;74089.28;;;-148.52;100.00
3254;BME280;1639;42.804;23.342;2022-12-16T01:52:30;74093.41;;;-148.52;100.00
3254;BME280;1639;42.804;23.342;2022-12-16T01:55:35;74093.41;;;-148.52;100.00
3254;BME280;1639;42.804;23.342;2022-12-16T01:57:57;74107.88;;;-148.52;100.00
3254;BME280;1639;42.804;23.342;2022-12-16T02:00:24;74099.59;;;-148.52;100.00
3254;BME280;1639;42.804;23.342;2022-12-16T02:02:50;74095.47;;;-148.52;100.00
3254;BME280;1639;42.804;23.342;2022-12-16T02:05:16;74089.28;;;-148.52;100.00
3254;BME280;1639;42.804;23.342;2022-12-16T02:07:59;74085.13;;;-148.52;100.00
3254;BME280;1639;42.804;23.342;2022-12-16T02:13:39;74070.66;;;-148.52;100.00
3254;BME280;1639;42.804;23.342;2022-12-16T02:16:17;74064.44;;;-148.52;100.00
3254;BME280;1639;42.804;23.342;2022-12-16T02:33:09;74058.22;;;-148.52;100.00
3254;BME280;1639;42.804;23.342;2022-12-16T02:38:40;74037.53;;;-148.52;100.00
3254;BME280;1639;42.804;23.342;2022-12-16T02:41:24;74047.88;;;-148.52;100.00
3254;BME280;1639;42.804;23.342;2022-12-16T02:43:56;74045.81;;;-148.52;100.00
3254;BME280;1639;42.804;23.342;2022-12-16T02:46:26;74056.16;;;-148.52;100.00
3254;BME280;1639;42.804;23.342;2022-12-16T02:48:53;74054.09;;;-148.52;100.00
3254;BME280;1639;42.804;23.342;2022-12-16T02:51:20;74056.16;;;-148.52;100.00
3254;BME280;1639;42.804;23.342;2022-12-16T02:53:47;74049.97;;;-148.52;100.00
3254;BME280;1639;42.804;23.342;2022-12-16T02:56:28;74043.75;;;-148.52;100.00
3254;BME280;1639;42.804;23.342;2022-12-16T03:01:35;74043.75;;;-148.52;100.00
3254;BME280;1639;42.804;23.342;2022-12-16T03:04:11;74039.63;;;-148.52;100.00
3254;BME280;1639;42.804;23.342;2022-12-16T03:06:41;74060.31;;;-148.52;100.00
3254;BME280;1639;42.804;23.342;2022-12-16T03:09:09;74056.16;;;-148.52;100.00
3254;BME280;1639;42.804;23.342;2022-12-16T03:11:39;74037.53;;;-148.52;100.00
3254;BME280;1639;42.804;23.342;2022-12-16T03:14:09;74041.69;;;-148.52;100.00
3254;BME280;1639;42.804;23.342;2022-12-16T03:16:39;74035.47;;;-148.52;100.00
3254;BME280;1639;42.804;23.342;2022-12-16T03:19:07;74025.13;;;-148.52;100.00
3254;BME280;1639;42.804;23.342;2022-12-16T03:21:42;74027.22;;;-148.52;100.00
3254;BME280;1639;42.804;23.342;2022-12-16T03:24:10;74010.66;;;-148.52;100.00
3254;BME280;1639;42.804;23.342;2022-12-16T03:26:57;74023.06;;;-148.52;100.00
3254;BME280;1639;42.804;23.342;2022-12-16T03:29:53;74043.75;;;-148.52;100.00
3254;BME280;1639;42.804;23.342;2022-12-16T03:32:30;74093.41;;;-148.52;100.00
3254;BME280;1639;42.804;23.342;2022-12-16T03:37:46;74091.34;;;-148.52;100.00
3254;BME280;1639;42.804;23.342;2022-12-16T03:40:12;74095.47;;;-148.52;100.00
3254;BME280;1639;42.804;23.342;2022-12-16T03:42:40;74081.00;;;-148.52;100.00
3254;BME280;1639;42.804;23.342;2022-12-16T03:45:10;74083.06;;;-148.52;100.00
3254;BME280;1639;42.804;23.342;2022-12-16T03:47:36;74076.84;;;-148.52;100.00
3254;BME280;1639;42.804;23.342;2022-12-16T03:50:02;74085.13;;;-148.52;100.00
3254;BME280;1639;42.804;23.342;2022-12-16T03:52:28;74081.00;;;-148.52;100.00
3254;BME280;1639;42.804;23.342;2022-12-16T03:54:53;74101.69;;;-148.52;100.00
3254;BME280;1639;42.804;23.342;2022-12-16T03:57:19;74091.34;;;-148.52;100.00
3254;BME280;1639;42.804;23.342;2022-12-16T03:59:44;74087.19;;;-148.52;100.00
3254;BME280;1639;42.804;23.342;2022-12-16T04:02:10;74089.28;;;-148.52;100.00
3254;BME280;1639;42.804;23.342;2022-12-16T04:04:35;74081.00;;;-148.52;100.00
3254;BME280;1639;42.804;23.342;2022-12-16T04:07:01;74072.72;;;-148.52;100.00
3254;BME280;1639;42.804;23.342;2022-12-16T04:09:45;74078.94;;;-148.52;100.00
3254;BME280;1639;42.804;23.342;2022-12-16T04:12:10;74070.66;;;-148.52;100.00
3254;BME280;1639;42.804;23.342;2022-12-16T04:14:55;74093.41;;;-148.52;100.00
3254;BME280;1639;42.804;23.342;2022-12-16T04:17:39;74083.06;;;-148.52;100.00
3254;BME280;1639;42.804;23.342;2022-12-16T04:20:29;74097.53;;;-148.52;100.00
3254;BME280;1639;42.804;23.342;2022-12-16T04:23:14;74087.19;;;-148.52;100.00
3254;BME280;1639;42.804;23.342;2022-12-16T04:25:58;74074.78;;;-148.52;100.00
3254;BME280;1639;42.804;23.342;2022-12-16T04:28:24;74089.28;;;-148.52;100.00
3254;BME280;1639;42.804;23.342;2022-12-16T04:30:49;74085.13;;;-148.52;100.00
3254;BME280;1639;42.804;23.342;2022-12-16T04:33:15;74087.19;;;-148.52;100.00
3254;BME280;1639;42.804;23.342;2022-12-16T04:35:59;74089.28;;;-148.52;100.00
3254;BME280;1639;42.804;23.342;2022-12-16T04:38:43;74089.28;;;-148.52;100.00
3254;BME280;1639;42.804;23.342;2022-12-16T04:41:28;74103.75;;;-148.52;100.00
3254;BME280;1639;42.804;23.342;2022-12-16T04:44:12;74112.03;;;-148.52;100.00
3254;BME280;1639;42.804;23.342;2022-12-16T04:46:56;74114.09;;;-148.52;100.00
3254;BME280;1639;42.804;23.342;2022-12-16T04:49:39;74128.56;;;-148.52;100.00
3254;BME280;1639;42.804;23.342;2022-12-16T04:52:23;74151.34;;;-148.52;100.00
3254;BME280;1639;42.804;23.342;2022-12-16T04:55:07;74176.16;;;-148.52;100.00
3254;BME280;1639;42.804;23.342;2022-12-16T04:57:56;74178.22;;;-148.52;100.00
3254;BME280;1639;42.804;23.342;2022-12-16T05:00:41;74176.16;;;-148.52;100.00
3254;BME280;1639;42.804;23.342;2022-12-16T05:03:26;74161.69;;;-148.52;100.00
3254;BME280;1639;42.804;23.342;2022-12-16T05:06:11;74151.34;;;-148.52;100.00
3254;BME280;1639;42.804;23.342;2022-12-16T05:08:55;74155.47;;;-148.52;100.00
3254;BME280;1639;42.804;23.342;2022-12-16T05:11:39;74163.75;;;-148.52;100.00
3254;BME280;1639;42.804;23.342;2022-12-16T05:14:23;74192.72;;;-148.52;100.00
3254;BME280;1639;42.804;23.342;2022-12-16T05:17:07;74194.78;;;-148.52;100.00
3254;BME280;1639;42.804;23.342;2022-12-16T05:19:50;74192.72;;;-148.52;100.00
3254;BME280;1639;42.804;23.342;2022-12-16T05:22:34;74186.50;;;-148.52;100.00
3254;BME280;1639;42.804;23.342;2022-12-16T05:25:19;74180.28;;;-148.52;100.00
3254;BME280;1639;42.804;23.342;2022-12-16T05:28:03;74176.16;;;-148.52;100.00
3254;BME280;1639;42.804;23.342;2022-12-16T05:30:47;74161.69;;;-148.52;100.00
3254;BME280;1639;42.804;23.342;2022-12-16T05:33:31;74163.75;;;-148.52;100.00
3254;BME280;1639;42.804;23.342;2022-12-16T05:36:15;74184.44;;;-148.52;100.00
3254;BME280;1639;42.804;23.342;2022-12-16T05:38:58;74184.44;;;-148.52;100.00
3254;BME280;1639;42.804;23.342;2022-12-16T05:41:42;74180.28;;;-148.52;100.00
3254;BME280;1639;42.804;23.342;2022-12-16T05:44:26;74176.16;;;-148.52;100.00
3254;BME280;1639;42.804;23.342;2022-12-16T05:47:10;74192.72;;;-148.52;100.00
3254;BME280;1639;42.804;23.342;2022-12-16T05:49:54;74213.41;;;-148.52;100.00
3254;BME280;1639;42.804;23.342;2022-12-16T05:52:38;74203.06;;;-148.52;100.00
3254;BME280;1639;42.804;23.342;2022-12-16T05:55:22;74190.63;;;-148.52;100.00
3254;BME280;1639;42.804;23.342;2022-12-16T05:58:07;74190.63;;;-148.52;100.00
3254;BME280;1639;42.804;23.342;2022-12-16T06:00:51;74200.97;;;-148.52;100.00
3254;BME280;1639;42.804;23.342;2022-12-16T06:03:35;74215.47;;;-148.52;100.00
3254;BME280;1639;42.804;23.342;2022-12-16T06:06:19;74234.09;;;-148.52;100.00
3254;BME280;1639;42.804;23.342;2022-12-16T06:09:11;74215.47;;;-148.52;100.00
3254;BME280;1639;42.804;23.342;2022-12-16T06:11:55;74213.41;;;-148.52;100.00
3254;BME280;1639;42.804;23.342;2022-12-16T06:14:39;74209.25;;;-148.52;100.00
3254;BME280;1639;42.804;23.342;2022-12-16T06:17:23;74229.94;;;-148.52;100.00
3254;BME280;1639;42.804;23.342;2022-12-16T06:20:07;74234.09;;;-148.52;100.00
3254;BME280;1639;42.804;23.342;2022-12-16T06:22:51;74232.00;;;-148.52;100.00
3254;BME280;1639;42.804;23.342;2022-12-16T06:25:35;74227.88;;;-148.52;100.00
3254;BME280;1639;42.804;23.342;2022-12-16T06:28:19;74229.94;;;-148.52;100.00
3254;BME280;1639;42.804;23.342;2022-12-16T06:31:04;74225.81;;;-148.52;100.00
3254;BME280;1639;42.804;23.342;2022-12-16T06:33:47;74225.81;;;-148.52;100.00
3254;BME280;1639;42.804;23.342;2022-12-16T06:36:32;74215.47;;;-148.52;100.00
3254;BME280;1639;42.804;23.342;2022-12-16T06:39:15;74219.59;;;-148.52;100.00
3254;BME280;1639;42.804;23.342;2022-12-16T06:41:59;74205.13;;;-148.52;100.00
3254;BME280;1639;42.804;23.342;2022-12-16T06:44:43;74188.56;;;-148.52;100.00
3254;BME280;1639;42.804;23.342;2022-12-16T06:47:27;74174.09;;;-148.52;100.00
3254;BME280;1639;42.804;23.342;2022-12-16T06:50:11;74180.28;;;-148.52;100.00
3254;BME280;1639;42.804;23.342;2022-12-16T06:52:55;74182.38;;;-148.52;100.00
3254;BME280;1639;42.804;23.342;2022-12-16T06:55:39;74184.44;;;-148.52;100.00
3254;BME280;1639;42.804;23.342;2022-12-16T06:58:23;74194.78;;;-148.52;100.00
3254;BME280;1639;42.804;23.342;2022-12-16T07:01:07;74194.78;;;-148.52;100.00
3254;BME280;1639;42.804;23.342;2022-12-16T07:03:51;74169.94;;;-148.52;100.00
3254;BME280;1639;42.804;23.342;2022-12-16T07:06:35;74155.47;;;-148.52;100.00
3254;BME280;1639;42.804;23.342;2022-12-16T07:09:19;74155.47;;;-148.52;100.00
3254;BME280;1639;42.804;23.342;2022-12-16T07:12:03;74126.50;;;-148.52;100.00
3254;BME280;1639;42.804;23.342;2022-12-16T07:14:47;74101.69;;;-148.52;100.00
3254;BME280;1639;42.804;23.342;2022-12-16T07:17:31;74091.34;;;-148.52;100.00
3254;BME280;1639;42.804;23.342;2022-12-16T07:20:15;74076.84;;;-148.52;100.00
3254;BME280;1639;42.804;23.342;2022-12-16T07:22:58;74064.44;;;-148.52;100.00
3254;BME280;1639;42.804;23.342;2022-12-16T07:25:43;74060.31;;;-148.52;100.00
3254;BME280;1639;42.804;23.342;2022-12-16T07:28:26;74045.81;;;-148.52;100.00
3254;BME280;1639;42.804;23.342;2022-12-16T07:31:10;74027.22;;;-148.52;100.00
3254;BME280;1639;42.804;23.342;2022-12-16T07:33:54;73992.03;;;-148.52;100.00
3254;BME280;1639;42.804;23.342;2022-12-16T07:36:38;73969.28;;;-148.52;100.00
3254;BME280;1639;42.804;23.342;2022-12-16T07:39:22;73934.13;;;-148.52;100.00
3254;BME280;1639;42.804;23.342;2022-12-16T07:42:06;73843.09;;;-148.52;100.00
3254;BME280;1639;42.804;23.342;2022-12-16T07:44:50;73696.22;;;-148.52;100.00
3254;BME280;1639;42.804;23.342;2022-12-16T07:47:34;73675.53;;;-148.52;100.00
3254;BME280;1639;42.804;23.342;2022-12-16T07:50:18;73700.34;;;-148.52;100.00
3254;BME280;1639;42.804;23.342;2022-12-16T07:53:02;73752.06;;;-148.52;100.00
3254;BME280;1639;42.804;23.342;2022-12-16T07:55:46;73783.09;;;-148.52;100.00
3254;BME280;1639;42.804;23.342;2022-12-16T07:58:30;73793.44;;;-148.52;100.00
3254;BME280;1639;42.804;23.342;2022-12-16T08:01:14;73787.25;;;-148.52;100.00
3254;BME280;1639;42.804;23.342;2022-12-16T08:03:58;73778.97;;;-148.52;100.00
3254;BME280;1639;42.804;23.342;2022-12-16T08:06:42;73772.75;;;-148.52;100.00
3254;BME280;1639;42.804;23.342;2022-12-16T08:09:26;73747.94;;;-148.52;100.00
3254;BME280;1639;42.804;23.342;2022-12-16T08:12:10;73739.66;;;-148.52;100.00
3254;BME280;1639;42.804;23.342;2022-12-16T08:14:54;73696.22;;;-148.52;100.00
3254;BME280;1639;42.804;23.342;2022-12-16T08:17:43;73683.81;;;-148.52;100.00
3254;BME280;1639;42.804;23.342;2022-12-16T08:20:30;73654.84;;;-148.52;100.00
3254;BME280;1639;42.804;23.342;2022-12-16T08:23:14;73630.03;;;-148.52;100.00
3254;BME280;1639;42.804;23.342;2022-12-16T08:25:58;73611.41;;;-148.52;100.00
3254;BME280;1639;42.804;23.342;2022-12-16T08:28:42;73576.25;;;-148.52;100.00
3254;BME280;1639;42.804;23.342;2022-12-16T08:31:26;73551.41;;;-148.52;100.00
3254;BME280;1639;42.804;23.342;2022-12-16T08:34:10;73497.63;;;-148.52;100.00
3254;BME280;1639;42.804;23.342;2022-12-16T08:36:53;73485.22;;;-148.52;100.00
3254;BME280;1639;42.804;23.342;2022-12-16T08:39:38;73472.81;;;-148.52;100.00
3254;BME280;1639;42.804;23.342;2022-12-16T08:42:22;73452.13;;;-148.52;100.00
3254;BME280;1639;42.804;23.342;2022-12-16T08:45:06;73435.59;;;-148.52;100.00
3254;BME280;1639;42.804;23.342;2022-12-16T08:47:49;73445.94;;;-148.52;100.00
3254;BME280;1639;42.804;23.342;2022-12-16T08:50:34;73410.75;;;-148.52;100.00
3254;BME280;1639;42.804;23.342;2022-12-16T08:53:17;73379.75;;;-148.52;100.00
3254;BME280;1639;42.804;23.342;2022-12-16T08:56:02;73375.59;;;-148.52;100.00
3254;BME280;1639;42.804;23.342;2022-12-16T08:58:45;73357.00;;;-148.52;100.00
3254;BME280;1639;42.804;23.342;2022-12-16T09:01:30;73350.78;;;-148.52;100.00
3254;BME280;1639;42.804;23.342;2022-12-16T09:17:37;73274.25;;;-148.52;100.00
3254;BME280;1639;42.804;23.342;2022-12-16T09:20:20;73249.44;;;-148.52;100.00
3254;BME280;1639;42.804;23.342;2022-12-16T09:23:04;73245.28;;;-148.52;100.00
3254;BME280;1639;42.804;23.342;2022-12-16T09:25:48;73234.94;;;-148.52;100.00
3254;BME280;1639;42.804;23.342;2022-12-16T09:28:32;73224.63;;;-148.52;100.00
3254;BME280;1639;42.804;23.342;2022-12-16T09:31:16;73216.34;;;-148.52;100.00
3254;BME280;1639;42.804;23.342;2022-12-16T09:34:00;73197.72;;;-148.52;100.00
3254;BME280;1639;42.804;23.342;2022-12-16T09:36:44;73179.09;;;-148.52;100.00
3254;BME280;1639;42.804;23.342;2022-12-16T09:39:28;73168.75;;;-148.52;100.00
3254;BME280;1639;42.804;23.342;2022-12-16T09:42:33;73166.69;;;-148.52;100.00
3254;BME280;1639;42.804;23.342;2022-12-16T09:49:01;73146.00;;;-148.52;100.00
3254;BME280;1639;42.804;23.342;2022-12-16T09:51:50;73119.13;;;-148.52;100.00
3254;BME280;1639;42.804;23.342;2022-12-16T09:54:38;73108.78;;;-148.52;100.00
3254;BME280;1639;42.804;23.342;2022-12-16T09:57:25;73092.25;;;-148.52;100.00
3254;BME280;1639;42.804;23.342;2022-12-16T10:00:19;73090.16;;;-148.52;100.00
3254;BME280;1639;42.804;23.342;2022-12-16T10:03:14;73088.09;;;-148.52;100.00
3254;BME280;1639;42.804;23.342;2022-12-16T10:09:15;73052.94;;;-148.52;100.00
3254;BME280;1639;42.804;23.342;2022-12-16T10:18:17;73038.47;;;-148.52;100.00
3254;BME280;1639;42.804;23.342;2022-12-16T10:21:03;73030.19;;;-148.52;100.00
3254;BME280;1639;42.804;23.342;2022-12-16T10:29:46;72992.97;;;-148.52;100.00
3254;BME280;1639;42.804;23.342;2022-12-16T10:32:43;72992.97;;;-148.52;100.00
3254;BME280;1639;42.804;23.342;2022-12-16T10:35:37;72966.06;;;-148.52;100.00
3254;BME280;1639;42.804;23.342;2022-12-16T10:38:38;72953.66;;;-148.52;100.00
3254;BME280;1639;42.804;23.342;2022-12-16T10:41:28;72941.25;;;-148.52;100.00
3254;BME280;1639;42.804;23.342;2022-12-16T10:44:30;72906.09;;;-148.52;100.00
3254;BME280;1639;42.804;23.342;2022-12-16T10:47:16;72881.28;;;-148.52;100.00
3254;BME280;1639;42.804;23.342;2022-12-16T10:50:00;72846.13;;;-148.52;100.00
3254;BME280;1639;42.804;23.342;2022-12-16T10:52:52;72831.66;;;-148.52;100.00
3254;BME280;1639;42.804;23.342;2022-12-16T10:55:48;72846.13;;;-148.52;100.00
3254;BME280;1639;42.804;23.342;2022-12-16T10:58:41;72837.84;;;-148.52;100.00
3254;BME280;1639;42.804;23.342;2022-12-16T11:01:28;72831.66;;;-148.52;100.00
3254;BME280;1639;42.804;23.342;2022-12-16T11:04:33;72825.44;;;-148.52;100.00
3254;BME280;1639;42.804;23.342;2022-12-16T11:07:33;72825.44;;;-148.52;100.00
3254;BME280;1639;42.804;23.342;2022-12-16T11:13:30;72798.56;;;-148.52;100.00
3254;BME280;1639;42.804;23.342;2022-12-16T11:19:00;72777.88;;;-148.52;100.00
3254;BME280;1639;42.804;23.342;2022-12-16T11:21:44;72771.66;;;-148.52;100.00
3254;BME280;1639;42.804;23.342;2022-12-16T11:24:28;72759.25;;;-148.52;100.00
3254;BME280;1639;42.804;23.342;2022-12-16T11:27:21;72757.19;;;-148.52;100.00
3254;BME280;1639;42.804;23.342;2022-12-16T11:30:21;72759.25;;;-148.52;100.00
3254;BME280;1639;42.804;23.342;2022-12-16T11:33:20;72755.13;;;-148.52;100.00
3254;BME280;1639;42.804;23.342;2022-12-16T11:36:26;72734.44;;;-148.52;100.00
3254;BME280;1639;42.804;23.342;2022-12-16T11:39:15;72738.59;;;-148.52;100.00
3254;BME280;1639;42.804;23.342;2022-12-16T11:42:01;72728.25;;;-148.52;100.00
3254;BME280;1639;42.804;23.342;2022-12-16T11:44:49;72711.69;;;-148.52;100.00
3254;BME280;1639;42.804;23.342;2022-12-16T11:47:42;72699.28;;;-148.52;100.00
3254;BME280;1639;42.804;23.342;2022-12-16T11:50:30;72682.75;;;-148.52;100.00
3254;BME280;1639;42.804;23.342;2022-12-16T11:53:33;72680.69;;;-148.52;100.00
3254;BME280;1639;42.804;23.342;2022-12-16T11:56:30;72668.28;;;-148.52;100.00
3254;BME280;1639;42.804;23.342;2022-12-16T11:59:28;72662.06;;;-148.52;100.00
3254;BME280;1639;42.804;23.342;2022-12-16T12:02:34;72657.94;;;-148.52;100.00
3254;BME280;1639;42.804;23.342;2022-12-16T12:05:27;72655.84;;;-148.52;100.00
3254;BME280;1639;42.804;23.342;2022-12-16T12:12:20;72631.03;;;-148.52;100.00
3254;BME280;1639;42.804;23.342;2022-12-16T12:15:13;72624.84;;;-148.52;100.00
3254;BME280;1639;42.804;23.342;2022-12-16T12:18:26;72618.63;;;-148.52;100.00
3254;BME280;1639;42.804;23.342;2022-12-16T12:21:25;72600.03;;;-148.52;100.00
3254;BME280;1639;42.804;23.342;2022-12-16T12:30:08;72569.00;;;-148.52;100.00
3254;BME280;1639;42.804;23.342;2022-12-16T12:39:02;72569.00;;;-148.52;100.00
3254;BME280;1639;42.804;23.342;2022-12-16T12:48:12;72544.19;;;-148.52;100.00
3254;BME280;1639;42.804;23.342;2022-12-16T12:51:08;72542.13;;;-148.52;100.00
3254;BME280;1639;42.804;23.342;2022-12-16T12:56:51;72513.16;;;-148.52;100.00
3254;BME280;1639;42.804;23.342;2022-12-16T13:02:23;72482.16;;;-148.52;100.00
3254;BME280;1639;42.804;23.342;2022-12-16T13:05:13;72478.00;;;-148.52;100.00
3254;BME280;1639;42.804;23.342;2022-12-16T13:08:29;72475.94;;;-148.52;100.00
3254;BME280;1639;42.804;23.342;2022-12-16T13:11:14;72484.22;;;-148.52;100.00
3254;BME280;1639;42.804;23.342;2022-12-16T13:13:58;72496.63;;;-148.52;100.00
3254;BME280;1639;42.804;23.342;2022-12-16T13:16:56;72490.41;;;-148.52;100.00
3254;BME280;1639;42.804;23.342;2022-12-16T13:19:42;72498.69;;;-148.52;100.00
3254;BME280;1639;42.804;23.342;2022-12-16T13:22:30;72498.69;;;-148.52;100.00
3254;BME280;1639;42.804;23.342;2022-12-16T13:25:42;72517.31;;;-148.52;100.00
3254;BME280;1639;42.804;23.342;2022-12-16T13:28:31;72500.75;;;-148.52;100.00
3254;BME280;1639;42.804;23.342;2022-12-16T13:31:16;72506.97;;;-148.52;100.00
3254;BME280;1639;42.804;23.342;2022-12-16T13:34:21;72500.75;;;-148.52;100.00
3254;BME280;1639;42.804;23.342;2022-12-16T13:37:19;72506.97;;;-148.52;100.00
3254;BME280;1639;42.804;23.342;2022-12-16T13:40:15;72519.38;;;-148.52;100.00
3254;BME280;1639;42.804;23.342;2022-12-16T13:43:00;72525.56;;;-148.52;100.00
3254;BME280;1639;42.804;23.342;2022-12-16T13:46:13;72531.78;;;-148.52;100.00
3254;BME280;1639;42.804;23.342;2022-12-16T13:52:56;72550.38;;;-148.52;100.00
3254;BME280;1639;42.804;23.342;2022-12-16T13:55:55;72558.66;;;-148.52;100.00
3254;BME280;1639;42.804;23.342;2022-12-16T13:58:47;72562.81;;;-148.52;100.00
3254;BME280;1639;42.804;23.342;2022-12-16T14:01:55;72566.94;;;-148.52;100.00
3254;BME280;1639;42.804;23.342;2022-12-16T14:04:46;72577.28;;;-148.52;100.00
3254;BME280;1639;42.804;23.342;2022-12-16T14:07:37;72597.97;;;-148.52;100.00
3254;BME280;1639;42.804;23.342;2022-12-16T14:10:42;72612.44;;;-148.52;100.00
3254;BME280;1639;42.804;23.342;2022-12-16T14:13:30;72631.03;;;-148.52;100.00
3254;BME280;1639;42.804;23.342;2022-12-16T14:22:54;72713.75;;;-148.52;100.00
3254;BME280;1639;42.804;23.342;2022-12-16T14:25:42;72724.09;;;-148.52;100.00
3254;BME280;1639;42.804;23.342;2022-12-16T14:28:38;72728.25;;;-148.52;100.00
3254;BME280;1639;42.804;23.342;2022-12-16T14:31:25;72744.78;;;-148.52;100.00
3254;BME280;1639;42.804;23.342;2022-12-16T14:34:22;72753.06;;;-148.52;100.00
3254;BME280;1639;42.804;23.342;2022-12-16T14:37:35;72757.19;;;-148.52;100.00
3254;BME280;1639;42.804;23.342;2022-12-16T14:40:27;72771.66;;;-148.52;100.00
3254;BME280;1639;42.804;23.342;2022-12-16T14:43:15;72794.41;;;-148.52;100.00
3254;BME280;1639;42.804;23.342;2022-12-16T14:46:01;72798.56;;;-148.52;100.00
3254;BME280;1639;42.804;23.342;2022-12-16T14:48:46;72790.28;;;-148.52;100.00
3254;BME280;1639;42.804;23.342;2022-12-16T14:51:48;72806.81;;;-148.52;100.00
3254;BME280;1639;42.804;23.342;2022-12-16T14:57:18;72827.50;;;-148.52;100.00
3254;BME280;1639;42.804;23.342;2022-12-16T15:03:05;72815.09;;;-148.52;100.00
3254;BME280;1639;42.804;23.342;2022-12-16T15:05:54;72831.66;;;-148.52;100.00
3254;BME280;1639;42.804;23.342;2022-12-16T15:08:51;72839.91;;;-148.52;100.00
3254;BME280;1639;42.804;23.342;2022-12-16T15:11:37;72854.41;;;-148.52;100.00
3254;BME280;1639;42.804;23.342;2022-12-16T15:14:26;72839.91;;;-148.52;100.00
3254;BME280;1639;42.804;23.342;2022-12-16T15:17:20;72858.53;;;-148.52;100.00
3254;BME280;1639;42.804;23.342;2022-12-16T15:20:21;72866.81;;;-148.52;100.00
3254;BME280;1639;42.804;23.342;2022-12-16T15:23:17;72868.88;;;-148.52;100.00
3254;BME280;1639;42.804;23.342;2022-12-16T15:26:02;72875.06;;;-148.52;100.00
3254;BME280;1639;42.804;23.342;2022-12-16T15:28:46;72870.94;;;-148.52;100.00
3254;BME280;1639;42.804;23.342;2022-12-16T15:31:32;72883.34;;;-148.52;100.00
3254;BME280;1639;42.804;23.342;2022-12-16T15:37:11;72893.69;;;-148.52;100.00
3254;BME280;1639;42.804;23.342;2022-12-16T15:39:56;72889.56;;;-148.52;100.00
3254;BME280;1639;42.804;23.342;2022-12-16T15:42:41;72897.81;;;-148.52;100.00
3254;BME280;1639;42.804;23.342;2022-12-16T15:45:28;72897.81;;;-148.52;100.00
3254;BME280;1639;42.804;23.342;2022-12-16T15:48:29;72910.25;;;-148.52;100.00
3254;BME280;1639;42.804;23.342;2022-12-16T15:51:53;72924.72;;;-148.52;100.00
3254;BME280;1639;42.804;23.342;2022-12-16T15:54:53;72918.50;;;-148.52;100.00